sensor_id;sensor_type;location;lat;lon;timestamp;P1;durP1;ratioP1;P2;durP2;ratioP2
19183;SDS011;9724;51.194;6.856;2023-07-22T00:01:09;11.30;;;8.73;;
19183;SDS011;9724;51.194;6.856;2023-07-22T00:03:35;14.77;;;8.93;;
19183;SDS011;9724;51.194;6.856;2023-07-22T00:06:03;11.77;;;8.40;;
19183;SDS011;9724;51.194;6.856;2023-07-22T00:08:31;12.70;;;8.37;;
19183;SDS011;9724;51.194;6.856;2023-07-22T00:10:57;12.63;;;8.73;;
19183;SDS011;9724;51.194;6.856;2023-07-22T00:13:23;10.67;;;8.43;;
19183;SDS011;9724;51.194;6.856;2023-07-22T00:15:52;15.30;;;8.90;;
19183;SDS011;9724;51.194;6.856;2023-07-22T00:18:18;11.00;;;8.10;;
19183;SDS011;9724;51.194;6.856;2023-07-22T00:20:44;12.17;;;8.80;;
19183;SDS011;9724;51.194;6.856;2023-07-22T00:23:11;17.63;;;9.30;;
19183;SDS011;9724;51.194;6.856;2023-07-22T00:25:38;13.37;;;8.23;;
19183;SDS011;9724;51.194;6.856;2023-07-22T00:28:04;13.70;;;7.83;;
19183;SDS011;9724;51.194;6.856;2023-07-22T00:30:30;16.57;;;8.30;;
19183;SDS011;9724;51.194;6.856;2023-07-22T00:32:57;12.20;;;8.30;;
19183;SDS011;9724;51.194;6.856;2023-07-22T00:35:23;14.43;;;8.50;;
19183;SDS011;9724;51.194;6.856;2023-07-22T00:37:49;13.67;;;8.43;;
19183;SDS011;9724;51.194;6.856;2023-07-22T00:40:16;10.87;;;7.63;;
19183;SDS011;9724;51.194;6.856;2023-07-22T00:42:43;13.23;;;7.43;;
19183;SDS011;9724;51.194;6.856;2023-07-22T00:45:10;18.87;;;7.97;;
19183;SDS011;9724;51.194;6.856;2023-07-22T00:47:36;10.00;;;7.87;;
19183;SDS011;9724;51.194;6.856;2023-07-22T00:50:03;16.53;;;7.67;;
19183;SDS011;9724;51.194;6.856;2023-07-22T00:52:31;11.50;;;7.17;;
19183;SDS011;9724;51.194;6.856;2023-07-22T00:54:58;15.27;;;7.23;;
19183;SDS011;9724;51.194;6.856;2023-07-22T00:57:25;13.30;;;7.60;;
19183;SDS011;9724;51.194;6.856;2023-07-22T00:59:52;11.23;;;7.87;;
19183;SDS011;9724;51.194;6.856;2023-07-22T01:02:18;13.60;;;7.77;;
19183;SDS011;9724;51.194;6.856;2023-07-22T01:04:45;12.67;;;7.17;;
19183;SDS011;9724;51.194;6.856;2023-07-22T01:07:12;16.33;;;7.40;;
19183;SDS011;9724;51.194;6.856;2023-07-22T01:09:39;12.40;;;7.50;;
19183;SDS011;9724;51.194;6.856;2023-07-22T01:12:06;9.40;;;7.03;;
19183;SDS011;9724;51.194;6.856;2023-07-22T01:14:35;9.90;;;6.87;;
19183;SDS011;9724;51.194;6.856;2023-07-22T01:17:02;15.13;;;7.53;;
19183;SDS011;9724;51.194;6.856;2023-07-22T01:19:30;12.27;;;7.13;;
19183;SDS011;9724;51.194;6.856;2023-07-22T01:21:57;10.63;;;7.60;;
19183;SDS011;9724;51.194;6.856;2023-07-22T01:24:24;14.50;;;7.40;;
19183;SDS011;9724;51.194;6.856;2023-07-22T01:26:51;14.63;;;7.23;;
19183;SDS011;9724;51.194;6.856;2023-07-22T01:29:17;9.70;;;7.60;;
19183;SDS011;9724;51.194;6.856;2023-07-22T01:31:45;10.20;;;6.90;;
19183;SDS011;9724;51.194;6.856;2023-07-22T01:34:13;8.37;;;6.50;;
19183;SDS011;9724;51.194;6.856;2023-07-22T01:36:39;8.73;;;6.97;;
19183;SDS011;9724;51.194;6.856;2023-07-22T01:39:05;14.63;;;6.73;;
19183;SDS011;9724;51.194;6.856;2023-07-22T01:41:33;13.70;;;7.10;;
19183;SDS011;9724;51.194;6.856;2023-07-22T01:43:59;14.37;;;7.57;;
19183;SDS011;9724;51.194;6.856;2023-07-22T01:46:25;9.37;;;6.53;;
19183;SDS011;9724;51.194;6.856;2023-07-22T01:48:52;12.13;;;6.97;;
19183;SDS011;9724;51.194;6.856;2023-07-22T01:51:19;14.97;;;7.40;;
19183;SDS011;9724;51.194;6.856;2023-07-22T01:53:45;12.10;;;7.07;;
19183;SDS011;9724;51.194;6.856;2023-07-22T01:56:11;14.13;;;7.53;;
19183;SDS011;9724;51.194;6.856;2023-07-22T01:58:39;13.17;;;7.33;;
19183;SDS011;9724;51.194;6.856;2023-07-22T02:01:05;14.97;;;7.10;;
19183;SDS011;9724;51.194;6.856;2023-07-22T02:03:33;12.70;;;7.00;;
19183;SDS011;9724;51.194;6.856;2023-07-22T02:06:02;11.03;;;7.37;;
19183;SDS011;9724;51.194;6.856;2023-07-22T02:08:28;9.60;;;7.03;;
19183;SDS011;9724;51.194;6.856;2023-07-22T02:10:55;13.37;;;7.17;;
19183;SDS011;9724;51.194;6.856;2023-07-22T02:13:26;12.27;;;7.43;;
19183;SDS011;9724;51.194;6.856;2023-07-22T02:15:53;10.37;;;6.73;;
19183;SDS011;9724;51.194;6.856;2023-07-22T02:18:19;11.63;;;7.23;;
19183;SDS011;9724;51.194;6.856;2023-07-22T02:20:46;9.20;;;6.87;;
19183;SDS011;9724;51.194;6.856;2023-07-22T02:23:12;11.70;;;7.13;;
19183;SDS011;9724;51.194;6.856;2023-07-22T02:25:38;9.70;;;6.87;;
19183;SDS011;9724;51.194;6.856;2023-07-22T02:28:05;12.47;;;7.07;;
19183;SDS011;9724;51.194;6.856;2023-07-22T02:30:33;12.03;;;7.10;;
19183;SDS011;9724;51.194;6.856;2023-07-22T02:33:01;10.73;;;7.27;;
19183;SDS011;9724;51.194;6.856;2023-07-22T02:35:28;13.43;;;7.03;;
19183;SDS011;9724;51.194;6.856;2023-07-22T02:37:55;9.63;;;6.70;;
19183;SDS011;9724;51.194;6.856;2023-07-22T02:40:21;11.93;;;7.30;;
19183;SDS011;9724;51.194;6.856;2023-07-22T02:42:47;14.53;;;8.00;;
19183;SDS011;9724;51.194;6.856;2023-07-22T02:45:13;12.80;;;7.07;;
19183;SDS011;9724;51.194;6.856;2023-07-22T02:47:40;10.53;;;7.07;;
19183;SDS011;9724;51.194;6.856;2023-07-22T02:50:07;11.93;;;7.33;;
19183;SDS011;9724;51.194;6.856;2023-07-22T02:52:34;13.43;;;6.87;;
19183;SDS011;9724;51.194;6.856;2023-07-22T02:55:05;13.27;;;7.17;;
19183;SDS011;9724;51.194;6.856;2023-07-22T02:57:33;9.57;;;6.60;;
19183;SDS011;9724;51.194;6.856;2023-07-22T02:59:59;9.97;;;6.83;;
19183;SDS011;9724;51.194;6.856;2023-07-22T03:02:26;12.93;;;6.73;;
19183;SDS011;9724;51.194;6.856;2023-07-22T03:04:52;15.97;;;7.23;;
19183;SDS011;9724;51.194;6.856;2023-07-22T03:07:20;9.97;;;6.33;;
19183;SDS011;9724;51.194;6.856;2023-07-22T03:09:46;10.00;;;6.13;;
19183;SDS011;9724;51.194;6.856;2023-07-22T03:12:12;9.77;;;6.60;;
19183;SDS011;9724;51.194;6.856;2023-07-22T03:14:39;8.77;;;6.60;;
19183;SDS011;9724;51.194;6.856;2023-07-22T03:17:05;13.13;;;6.63;;
19183;SDS011;9724;51.194;6.856;2023-07-22T03:19:31;10.27;;;6.57;;
19183;SDS011;9724;51.194;6.856;2023-07-22T03:21:58;10.73;;;6.80;;
19183;SDS011;9724;51.194;6.856;2023-07-22T03:24:25;9.83;;;6.53;;
19183;SDS011;9724;51.194;6.856;2023-07-22T03:26:51;11.40;;;6.83;;
19183;SDS011;9724;51.194;6.856;2023-07-22T03:29:17;11.70;;;6.87;;
19183;SDS011;9724;51.194;6.856;2023-07-22T03:31:44;10.20;;;7.03;;
19183;SDS011;9724;51.194;6.856;2023-07-22T03:34:10;10.77;;;6.73;;
19183;SDS011;9724;51.194;6.856;2023-07-22T03:36:36;11.17;;;7.00;;
19183;SDS011;9724;51.194;6.856;2023-07-22T03:39:03;14.73;;;7.03;;
19183;SDS011;9724;51.194;6.856;2023-07-22T03:41:30;10.90;;;6.93;;
19183;SDS011;9724;51.194;6.856;2023-07-22T03:43:56;10.17;;;6.50;;
19183;SDS011;9724;51.194;6.856;2023-07-22T03:46:22;9.30;;;7.10;;
19183;SDS011;9724;51.194;6.856;2023-07-22T03:48:49;8.97;;;6.63;;
19183;SDS011;9724;51.194;6.856;2023-07-22T03:51:15;10.03;;;6.93;;
19183;SDS011;9724;51.194;6.856;2023-07-22T03:53:46;8.80;;;6.40;;
19183;SDS011;9724;51.194;6.856;2023-07-22T03:56:12;13.67;;;7.13;;
19183;SDS011;9724;51.194;6.856;2023-07-22T03:58:39;8.97;;;6.67;;
19183;SDS011;9724;51.194;6.856;2023-07-22T04:01:05;12.77;;;6.97;;
19183;SDS011;9724;51.194;6.856;2023-07-22T04:03:32;11.30;;;6.80;;
19183;SDS011;9724;51.194;6.856;2023-07-22T04:05:58;14.43;;;7.10;;
19183;SDS011;9724;51.194;6.856;2023-07-22T04:08:25;11.27;;;6.60;;
19183;SDS011;9724;51.194;6.856;2023-07-22T04:10:52;13.77;;;7.23;;
19183;SDS011;9724;51.194;6.856;2023-07-22T04:13:18;10.63;;;7.00;;
19183;SDS011;9724;51.194;6.856;2023-07-22T04:15:45;14.83;;;7.67;;
19183;SDS011;9724;51.194;6.856;2023-07-22T04:18:11;15.53;;;7.20;;
19183;SDS011;9724;51.194;6.856;2023-07-22T04:20:38;10.87;;;7.17;;
19183;SDS011;9724;51.194;6.856;2023-07-22T04:23:04;10.80;;;6.70;;
19183;SDS011;9724;51.194;6.856;2023-07-22T04:25:30;10.07;;;7.00;;
19183;SDS011;9724;51.194;6.856;2023-07-22T04:27:57;15.77;;;7.77;;
19183;SDS011;9724;51.194;6.856;2023-07-22T04:30:23;12.53;;;7.43;;
19183;SDS011;9724;51.194;6.856;2023-07-22T04:32:50;14.00;;;8.03;;
19183;SDS011;9724;51.194;6.856;2023-07-22T04:35:17;13.70;;;8.13;;
19183;SDS011;9724;51.194;6.856;2023-07-22T04:37:43;14.77;;;7.40;;
19183;SDS011;9724;51.194;6.856;2023-07-22T04:40:10;10.60;;;7.60;;
19183;SDS011;9724;51.194;6.856;2023-07-22T04:42:39;15.70;;;7.67;;
19183;SDS011;9724;51.194;6.856;2023-07-22T04:45:06;14.13;;;7.97;;
19183;SDS011;9724;51.194;6.856;2023-07-22T04:47:35;13.00;;;8.00;;
19183;SDS011;9724;51.194;6.856;2023-07-22T04:50:02;10.97;;;7.80;;
19183;SDS011;9724;51.194;6.856;2023-07-22T04:52:29;12.13;;;7.30;;
19183;SDS011;9724;51.194;6.856;2023-07-22T04:54:56;13.37;;;7.83;;
19183;SDS011;9724;51.194;6.856;2023-07-22T04:57:22;16.57;;;8.17;;
19183;SDS011;9724;51.194;6.856;2023-07-22T04:59:48;12.87;;;7.80;;
19183;SDS011;9724;51.194;6.856;2023-07-22T05:02:15;12.63;;;8.13;;
19183;SDS011;9724;51.194;6.856;2023-07-22T05:04:41;9.60;;;7.53;;
19183;SDS011;9724;51.194;6.856;2023-07-22T05:07:08;12.47;;;7.43;;
19183;SDS011;9724;51.194;6.856;2023-07-22T05:09:35;14.40;;;7.90;;
19183;SDS011;9724;51.194;6.856;2023-07-22T05:12:02;12.93;;;8.20;;
19183;SDS011;9724;51.194;6.856;2023-07-22T05:14:29;12.00;;;7.80;;
19183;SDS011;9724;51.194;6.856;2023-07-22T05:16:55;13.73;;;8.43;;
19183;SDS011;9724;51.194;6.856;2023-07-22T05:19:22;11.50;;;7.47;;
19183;SDS011;9724;51.194;6.856;2023-07-22T05:21:48;14.03;;;7.83;;
19183;SDS011;9724;51.194;6.856;2023-07-22T05:24:15;10.87;;;7.37;;
19183;SDS011;9724;51.194;6.856;2023-07-22T05:26:42;11.23;;;7.43;;
19183;SDS011;9724;51.194;6.856;2023-07-22T05:29:24;11.27;;;7.47;;
19183;SDS011;9724;51.194;6.856;2023-07-22T05:31:50;12.40;;;7.77;;
19183;SDS011;9724;51.194;6.856;2023-07-22T05:34:17;9.17;;;7.57;;
19183;SDS011;9724;51.194;6.856;2023-07-22T05:36:43;14.43;;;7.80;;
19183;SDS011;9724;51.194;6.856;2023-07-22T05:39:09;11.63;;;7.47;;
19183;SDS011;9724;51.194;6.856;2023-07-22T05:41:36;13.33;;;7.90;;
19183;SDS011;9724;51.194;6.856;2023-07-22T05:44:06;10.60;;;7.50;;
19183;SDS011;9724;51.194;6.856;2023-07-22T05:46:33;14.70;;;7.83;;
19183;SDS011;9724;51.194;6.856;2023-07-22T05:48:59;11.20;;;7.63;;
19183;SDS011;9724;51.194;6.856;2023-07-22T05:51:26;15.10;;;7.23;;
19183;SDS011;9724;51.194;6.856;2023-07-22T05:53:54;10.97;;;7.07;;
19183;SDS011;9724;51.194;6.856;2023-07-22T05:56:20;10.93;;;7.13;;
19183;SDS011;9724;51.194;6.856;2023-07-22T05:58:47;13.43;;;7.50;;
19183;SDS011;9724;51.194;6.856;2023-07-22T06:01:14;10.67;;;7.03;;
19183;SDS011;9724;51.194;6.856;2023-07-22T06:03:41;15.60;;;6.93;;
19183;SDS011;9724;51.194;6.856;2023-07-22T06:06:07;15.07;;;7.57;;
19183;SDS011;9724;51.194;6.856;2023-07-22T06:08:34;18.57;;;7.90;;
19183;SDS011;9724;51.194;6.856;2023-07-22T06:11:00;15.93;;;7.47;;
19183;SDS011;9724;51.194;6.856;2023-07-22T06:13:26;11.60;;;7.17;;
19183;SDS011;9724;51.194;6.856;2023-07-22T06:15:53;8.90;;;6.40;;
19183;SDS011;9724;51.194;6.856;2023-07-22T06:18:19;10.93;;;6.57;;
19183;SDS011;9724;51.194;6.856;2023-07-22T06:20:46;10.77;;;6.20;;
19183;SDS011;9724;51.194;6.856;2023-07-22T06:23:12;12.20;;;6.33;;
19183;SDS011;9724;51.194;6.856;2023-07-22T06:25:38;14.80;;;6.23;;
19183;SDS011;9724;51.194;6.856;2023-07-22T06:28:06;9.90;;;6.33;;
19183;SDS011;9724;51.194;6.856;2023-07-22T06:30:32;6.67;;;5.97;;
19183;SDS011;9724;51.194;6.856;2023-07-22T06:32:59;8.87;;;6.53;;
19183;SDS011;9724;51.194;6.856;2023-07-22T06:35:26;10.80;;;6.17;;
19183;SDS011;9724;51.194;6.856;2023-07-22T06:37:52;9.23;;;6.00;;
19183;SDS011;9724;51.194;6.856;2023-07-22T06:40:19;9.47;;;5.80;;
19183;SDS011;9724;51.194;6.856;2023-07-22T06:42:45;8.37;;;5.13;;
19183;SDS011;9724;51.194;6.856;2023-07-22T06:45:11;10.93;;;5.87;;
19183;SDS011;9724;51.194;6.856;2023-07-22T06:47:38;9.50;;;4.97;;
19183;SDS011;9724;51.194;6.856;2023-07-22T06:50:05;10.77;;;5.57;;
19183;SDS011;9724;51.194;6.856;2023-07-22T06:52:32;9.70;;;5.23;;
19183;SDS011;9724;51.194;6.856;2023-07-22T06:54:58;7.43;;;5.53;;
19183;SDS011;9724;51.194;6.856;2023-07-22T06:57:25;10.90;;;5.43;;
19183;SDS011;9724;51.194;6.856;2023-07-22T06:59:53;10.87;;;5.77;;
19183;SDS011;9724;51.194;6.856;2023-07-22T07:02:19;9.63;;;4.97;;
19183;SDS011;9724;51.194;6.856;2023-07-22T07:04:45;7.60;;;5.57;;
19183;SDS011;9724;51.194;6.856;2023-07-22T07:07:12;8.13;;;5.20;;
19183;SDS011;9724;51.194;6.856;2023-07-22T07:09:39;11.83;;;6.00;;
19183;SDS011;9724;51.194;6.856;2023-07-22T07:12:06;7.77;;;5.17;;
19183;SDS011;9724;51.194;6.856;2023-07-22T07:14:33;8.40;;;6.00;;
19183;SDS011;9724;51.194;6.856;2023-07-22T07:16:59;6.63;;;5.40;;
19183;SDS011;9724;51.194;6.856;2023-07-22T07:19:26;11.43;;;5.97;;
19183;SDS011;9724;51.194;6.856;2023-07-22T07:21:53;6.97;;;5.33;;
19183;SDS011;9724;51.194;6.856;2023-07-22T07:24:21;7.03;;;5.63;;
19183;SDS011;9724;51.194;6.856;2023-07-22T07:26:48;7.87;;;5.13;;
19183;SDS011;9724;51.194;6.856;2023-07-22T07:29:14;10.27;;;6.20;;
19183;SDS011;9724;51.194;6.856;2023-07-22T07:32:00;11.73;;;5.50;;
19183;SDS011;9724;51.194;6.856;2023-07-22T07:34:27;8.57;;;5.37;;
19183;SDS011;9724;51.194;6.856;2023-07-22T07:36:53;8.87;;;5.60;;
19183;SDS011;9724;51.194;6.856;2023-07-22T07:39:19;7.67;;;6.23;;
19183;SDS011;9724;51.194;6.856;2023-07-22T07:41:46;7.10;;;6.30;;
19183;SDS011;9724;51.194;6.856;2023-07-22T07:44:12;7.00;;;5.97;;
19183;SDS011;9724;51.194;6.856;2023-07-22T07:46:39;11.23;;;6.00;;
19183;SDS011;9724;51.194;6.856;2023-07-22T07:49:05;8.20;;;5.70;;
19183;SDS011;9724;51.194;6.856;2023-07-22T07:51:31;10.47;;;6.20;;
19183;SDS011;9724;51.194;6.856;2023-07-22T07:53:59;17.57;;;6.27;;
19183;SDS011;9724;51.194;6.856;2023-07-22T07:56:26;11.40;;;6.13;;
19183;SDS011;9724;51.194;6.856;2023-07-22T07:58:53;8.33;;;6.10;;
19183;SDS011;9724;51.194;6.856;2023-07-22T08:01:20;16.37;;;6.23;;
19183;SDS011;9724;51.194;6.856;2023-07-22T08:03:47;11.63;;;6.43;;
19183;SDS011;9724;51.194;6.856;2023-07-22T08:06:13;12.20;;;6.33;;
19183;SDS011;9724;51.194;6.856;2023-07-22T08:08:41;9.53;;;6.23;;
19183;SDS011;9724;51.194;6.856;2023-07-22T08:11:11;15.13;;;6.90;;
19183;SDS011;9724;51.194;6.856;2023-07-22T08:13:39;9.23;;;6.40;;
19183;SDS011;9724;51.194;6.856;2023-07-22T08:16:07;11.73;;;6.67;;
19183;SDS011;9724;51.194;6.856;2023-07-22T08:18:34;11.43;;;6.70;;
19183;SDS011;9724;51.194;6.856;2023-07-22T08:21:01;13.10;;;7.20;;
19183;SDS011;9724;51.194;6.856;2023-07-22T08:23:29;12.83;;;6.47;;
19183;SDS011;9724;51.194;6.856;2023-07-22T08:25:55;13.97;;;6.73;;
19183;SDS011;9724;51.194;6.856;2023-07-22T08:28:21;10.17;;;6.37;;
19183;SDS011;9724;51.194;6.856;2023-07-22T08:30:48;13.90;;;6.53;;
19183;SDS011;9724;51.194;6.856;2023-07-22T08:33:15;10.83;;;6.43;;
19183;SDS011;9724;51.194;6.856;2023-07-22T08:35:50;14.07;;;6.87;;
19183;SDS011;9724;51.194;6.856;2023-07-22T08:38:16;9.43;;;5.90;;
19183;SDS011;9724;51.194;6.856;2023-07-22T08:40:43;13.23;;;6.70;;
19183;SDS011;9724;51.194;6.856;2023-07-22T08:43:10;10.90;;;6.53;;
19183;SDS011;9724;51.194;6.856;2023-07-22T08:45:37;14.13;;;6.90;;
19183;SDS011;9724;51.194;6.856;2023-07-22T08:48:04;9.87;;;6.67;;
19183;SDS011;9724;51.194;6.856;2023-07-22T08:50:39;8.30;;;6.40;;
19183;SDS011;9724;51.194;6.856;2023-07-22T08:53:08;11.80;;;6.03;;
19183;SDS011;9724;51.194;6.856;2023-07-22T08:55:35;12.17;;;5.80;;
19183;SDS011;9724;51.194;6.856;2023-07-22T08:58:05;9.47;;;6.40;;
19183;SDS011;9724;51.194;6.856;2023-07-22T09:00:34;9.47;;;6.20;;
19183;SDS011;9724;51.194;6.856;2023-07-22T09:03:00;7.17;;;5.43;;
19183;SDS011;9724;51.194;6.856;2023-07-22T09:05:27;7.33;;;5.10;;
19183;SDS011;9724;51.194;6.856;2023-07-22T09:07:54;7.47;;;5.03;;
19183;SDS011;9724;51.194;6.856;2023-07-22T09:10:21;8.53;;;5.43;;
19183;SDS011;9724;51.194;6.856;2023-07-22T09:12:48;8.53;;;5.10;;
19183;SDS011;9724;51.194;6.856;2023-07-22T09:15:15;4.53;;;4.13;;
19183;SDS011;9724;51.194;6.856;2023-07-22T09:17:43;5.30;;;4.30;;
19183;SDS011;9724;51.194;6.856;2023-07-22T09:20:11;7.60;;;4.90;;
19183;SDS011;9724;51.194;6.856;2023-07-22T09:22:42;5.40;;;4.60;;
19183;SDS011;9724;51.194;6.856;2023-07-22T09:25:16;6.70;;;4.83;;
19183;SDS011;9724;51.194;6.856;2023-07-22T09:27:43;5.70;;;5.10;;
19183;SDS011;9724;51.194;6.856;2023-07-22T09:30:20;10.40;;;5.00;;
19183;SDS011;9724;51.194;6.856;2023-07-22T09:32:47;6.03;;;4.73;;
19183;SDS011;9724;51.194;6.856;2023-07-22T09:35:14;6.73;;;4.73;;
19183;SDS011;9724;51.194;6.856;2023-07-22T09:37:40;7.30;;;4.60;;
19183;SDS011;9724;51.194;6.856;2023-07-22T09:40:20;7.77;;;4.40;;
19183;SDS011;9724;51.194;6.856;2023-07-22T09:42:47;4.13;;;3.73;;
19183;SDS011;9724;51.194;6.856;2023-07-22T09:45:15;9.97;;;4.00;;
19183;SDS011;9724;51.194;6.856;2023-07-22T09:47:43;8.17;;;3.70;;
19183;SDS011;9724;51.194;6.856;2023-07-22T09:50:11;5.33;;;3.50;;
19183;SDS011;9724;51.194;6.856;2023-07-22T09:52:41;5.37;;;3.50;;
19183;SDS011;9724;51.194;6.856;2023-07-22T09:55:09;6.30;;;3.50;;
19183;SDS011;9724;51.194;6.856;2023-07-22T09:57:36;4.70;;;3.00;;
19183;SDS011;9724;51.194;6.856;2023-07-22T10:00:05;3.03;;;2.73;;
19183;SDS011;9724;51.194;6.856;2023-07-22T10:02:34;3.50;;;2.90;;
19183;SDS011;9724;51.194;6.856;2023-07-22T10:05:02;2.80;;;2.40;;
19183;SDS011;9724;51.194;6.856;2023-07-22T10:07:29;2.73;;;2.53;;
19183;SDS011;9724;51.194;6.856;2023-07-22T10:09:56;3.83;;;2.60;;
19183;SDS011;9724;51.194;6.856;2023-07-22T10:12:23;4.93;;;2.47;;
19183;SDS011;9724;51.194;6.856;2023-07-22T10:14:51;2.63;;;2.40;;
19183;SDS011;9724;51.194;6.856;2023-07-22T10:17:18;6.13;;;2.60;;
19183;SDS011;9724;51.194;6.856;2023-07-22T10:19:45;2.97;;;2.67;;
19183;SDS011;9724;51.194;6.856;2023-07-22T10:22:11;3.53;;;2.67;;
19183;SDS011;9724;51.194;6.856;2023-07-22T10:24:38;4.20;;;2.97;;
19183;SDS011;9724;51.194;6.856;2023-07-22T10:27:05;4.47;;;2.70;;
19183;SDS011;9724;51.194;6.856;2023-07-22T10:29:33;2.60;;;2.40;;
19183;SDS011;9724;51.194;6.856;2023-07-22T10:32:00;4.00;;;2.67;;
19183;SDS011;9724;51.194;6.856;2023-07-22T10:34:26;5.97;;;2.93;;
19183;SDS011;9724;51.194;6.856;2023-07-22T10:36:55;4.07;;;2.77;;
19183;SDS011;9724;51.194;6.856;2023-07-22T10:39:25;6.27;;;2.83;;
19183;SDS011;9724;51.194;6.856;2023-07-22T10:41:57;3.80;;;2.60;;
19183;SDS011;9724;51.194;6.856;2023-07-22T10:44:25;7.20;;;2.90;;
19183;SDS011;9724;51.194;6.856;2023-07-22T10:46:56;5.83;;;2.90;;
19183;SDS011;9724;51.194;6.856;2023-07-22T10:49:23;6.13;;;2.70;;
19183;SDS011;9724;51.194;6.856;2023-07-22T10:51:51;4.13;;;2.77;;
19183;SDS011;9724;51.194;6.856;2023-07-22T10:54:31;5.23;;;2.70;;
19183;SDS011;9724;51.194;6.856;2023-07-22T10:57:02;2.77;;;2.40;;
19183;SDS011;9724;51.194;6.856;2023-07-22T10:59:31;7.57;;;2.70;;
19183;SDS011;9724;51.194;6.856;2023-07-22T11:01:59;7.10;;;2.77;;
19183;SDS011;9724;51.194;6.856;2023-07-22T11:04:26;4.57;;;2.90;;
19183;SDS011;9724;51.194;6.856;2023-07-22T11:07:03;4.53;;;2.57;;
19183;SDS011;9724;51.194;6.856;2023-07-22T11:09:40;7.70;;;2.53;;
19183;SDS011;9724;51.194;6.856;2023-07-22T11:12:11;6.33;;;2.57;;
19183;SDS011;9724;51.194;6.856;2023-07-22T11:14:39;2.40;;;2.30;;
19183;SDS011;9724;51.194;6.856;2023-07-22T11:17:07;3.03;;;2.30;;
19183;SDS011;9724;51.194;6.856;2023-07-22T11:19:34;7.00;;;2.30;;
19183;SDS011;9724;51.194;6.856;2023-07-22T11:22:01;5.43;;;2.10;;
19183;SDS011;9724;51.194;6.856;2023-07-22T11:24:27;4.23;;;2.47;;
19183;SDS011;9724;51.194;6.856;2023-07-22T11:26:53;2.13;;;2.03;;
19183;SDS011;9724;51.194;6.856;2023-07-22T11:29:20;4.47;;;2.00;;
19183;SDS011;9724;51.194;6.856;2023-07-22T11:31:48;3.10;;;2.33;;
19183;SDS011;9724;51.194;6.856;2023-07-22T11:34:16;4.87;;;2.40;;
19183;SDS011;9724;51.194;6.856;2023-07-22T11:36:44;4.13;;;2.47;;
19183;SDS011;9724;51.194;6.856;2023-07-22T11:39:11;3.43;;;2.33;;
19183;SDS011;9724;51.194;6.856;2023-07-22T11:41:38;4.97;;;2.67;;
19183;SDS011;9724;51.194;6.856;2023-07-22T11:44:07;2.70;;;2.50;;
19183;SDS011;9724;51.194;6.856;2023-07-22T11:46:35;4.33;;;2.57;;
19183;SDS011;9724;51.194;6.856;2023-07-22T11:49:02;7.93;;;2.93;;
19183;SDS011;9724;51.194;6.856;2023-07-22T11:51:29;4.43;;;2.73;;
19183;SDS011;9724;51.194;6.856;2023-07-22T11:53:56;3.47;;;2.27;;
19183;SDS011;9724;51.194;6.856;2023-07-22T11:56:23;3.77;;;2.30;;
19183;SDS011;9724;51.194;6.856;2023-07-22T11:58:55;5.87;;;2.50;;
19183;SDS011;9724;51.194;6.856;2023-07-22T12:01:22;2.70;;;2.50;;
19183;SDS011;9724;51.194;6.856;2023-07-22T12:03:49;3.27;;;2.43;;
19183;SDS011;9724;51.194;6.856;2023-07-22T12:06:21;2.40;;;2.30;;
19183;SDS011;9724;51.194;6.856;2023-07-22T12:08:51;2.37;;;2.23;;
19183;SDS011;9724;51.194;6.856;2023-07-22T12:11:19;3.10;;;2.80;;
19183;SDS011;9724;51.194;6.856;2023-07-22T12:13:46;3.10;;;2.83;;
19183;SDS011;9724;51.194;6.856;2023-07-22T12:16:20;3.17;;;2.80;;
19183;SDS011;9724;51.194;6.856;2023-07-22T12:18:48;5.27;;;3.07;;
19183;SDS011;9724;51.194;6.856;2023-07-22T12:21:14;2.53;;;2.30;;
19183;SDS011;9724;51.194;6.856;2023-07-22T12:23:41;3.13;;;2.77;;
19183;SDS011;9724;51.194;6.856;2023-07-22T12:26:08;8.00;;;2.63;;
19183;SDS011;9724;51.194;6.856;2023-07-22T12:28:35;6.43;;;2.37;;
19183;SDS011;9724;51.194;6.856;2023-07-22T12:31:01;4.20;;;2.97;;
19183;SDS011;9724;51.194;6.856;2023-07-22T12:33:27;6.77;;;2.90;;
19183;SDS011;9724;51.194;6.856;2023-07-22T12:35:54;7.63;;;3.00;;
19183;SDS011;9724;51.194;6.856;2023-07-22T12:38:21;4.63;;;2.70;;
19183;SDS011;9724;51.194;6.856;2023-07-22T12:40:47;4.20;;;2.50;;
19183;SDS011;9724;51.194;6.856;2023-07-22T12:43:14;3.43;;;2.83;;
19183;SDS011;9724;51.194;6.856;2023-07-22T12:45:41;3.23;;;2.70;;
19183;SDS011;9724;51.194;6.856;2023-07-22T12:48:07;5.17;;;2.70;;
19183;SDS011;9724;51.194;6.856;2023-07-22T12:50:34;3.97;;;2.60;;
19183;SDS011;9724;51.194;6.856;2023-07-22T12:53:00;3.30;;;2.67;;
19183;SDS011;9724;51.194;6.856;2023-07-22T12:55:28;7.07;;;2.73;;
19183;SDS011;9724;51.194;6.856;2023-07-22T12:57:54;2.70;;;2.53;;
19183;SDS011;9724;51.194;6.856;2023-07-22T13:00:21;4.93;;;2.80;;
19183;SDS011;9724;51.194;6.856;2023-07-22T13:02:48;3.20;;;2.40;;
19183;SDS011;9724;51.194;6.856;2023-07-22T13:05:14;2.70;;;2.60;;
19183;SDS011;9724;51.194;6.856;2023-07-22T13:07:40;5.00;;;2.60;;
19183;SDS011;9724;51.194;6.856;2023-07-22T13:10:07;4.20;;;2.30;;
19183;SDS011;9724;51.194;6.856;2023-07-22T13:12:36;3.17;;;2.43;;
19183;SDS011;9724;51.194;6.856;2023-07-22T13:15:03;5.57;;;2.67;;
19183;SDS011;9724;51.194;6.856;2023-07-22T13:17:29;2.53;;;2.33;;
19183;SDS011;9724;51.194;6.856;2023-07-22T13:19:57;2.90;;;2.57;;
19183;SDS011;9724;51.194;6.856;2023-07-22T13:22:24;8.87;;;2.60;;
19183;SDS011;9724;51.194;6.856;2023-07-22T13:24:50;3.17;;;2.07;;
19183;SDS011;9724;51.194;6.856;2023-07-22T13:27:16;2.33;;;2.23;;
19183;SDS011;9724;51.194;6.856;2023-07-22T13:29:43;3.17;;;2.10;;
19183;SDS011;9724;51.194;6.856;2023-07-22T13:32:09;2.27;;;2.07;;
19183;SDS011;9724;51.194;6.856;2023-07-22T13:34:36;2.17;;;2.07;;
19183;SDS011;9724;51.194;6.856;2023-07-22T13:37:03;6.67;;;2.47;;
19183;SDS011;9724;51.194;6.856;2023-07-22T13:39:30;5.00;;;2.47;;
19183;SDS011;9724;51.194;6.856;2023-07-22T13:41:56;3.00;;;2.80;;
19183;SDS011;9724;51.194;6.856;2023-07-22T13:44:24;4.07;;;2.50;;
19183;SDS011;9724;51.194;6.856;2023-07-22T13:46:50;2.50;;;2.30;;
19183;SDS011;9724;51.194;6.856;2023-07-22T13:49:16;3.00;;;2.60;;
19183;SDS011;9724;51.194;6.856;2023-07-22T13:51:43;3.97;;;2.83;;
19183;SDS011;9724;51.194;6.856;2023-07-22T13:54:10;5.57;;;3.10;;
19183;SDS011;9724;51.194;6.856;2023-07-22T13:56:37;14.03;;;2.83;;
19183;SDS011;9724;51.194;6.856;2023-07-22T13:59:03;4.57;;;2.90;;
19183;SDS011;9724;51.194;6.856;2023-07-22T14:01:30;5.80;;;3.07;;
19183;SDS011;9724;51.194;6.856;2023-07-22T14:03:56;2.90;;;2.60;;
19183;SDS011;9724;51.194;6.856;2023-07-22T14:06:23;3.07;;;2.73;;
19183;SDS011;9724;51.194;6.856;2023-07-22T14:08:49;3.10;;;2.80;;
19183;SDS011;9724;51.194;6.856;2023-07-22T14:11:16;3.33;;;2.97;;
19183;SDS011;9724;51.194;6.856;2023-07-22T14:13:43;3.47;;;3.10;;
19183;SDS011;9724;51.194;6.856;2023-07-22T14:16:09;4.40;;;2.80;;
19183;SDS011;9724;51.194;6.856;2023-07-22T14:18:48;8.07;;;2.90;;
19183;SDS011;9724;51.194;6.856;2023-07-22T14:21:14;4.73;;;2.70;;
19183;SDS011;9724;51.194;6.856;2023-07-22T14:23:40;2.90;;;2.70;;
19183;SDS011;9724;51.194;6.856;2023-07-22T14:26:07;3.63;;;3.17;;
19183;SDS011;9724;51.194;6.856;2023-07-22T14:28:34;3.90;;;3.20;;
19183;SDS011;9724;51.194;6.856;2023-07-22T14:31:00;6.13;;;3.07;;
19183;SDS011;9724;51.194;6.856;2023-07-22T14:33:27;4.80;;;3.20;;
19183;SDS011;9724;51.194;6.856;2023-07-22T14:35:53;6.13;;;3.60;;
19183;SDS011;9724;51.194;6.856;2023-07-22T14:38:19;6.53;;;3.80;;
19183;SDS011;9724;51.194;6.856;2023-07-22T14:40:46;5.30;;;3.07;;
19183;SDS011;9724;51.194;6.856;2023-07-22T14:43:12;3.57;;;2.93;;
19183;SDS011;9724;51.194;6.856;2023-07-22T14:45:39;7.37;;;3.63;;
19183;SDS011;9724;51.194;6.856;2023-07-22T14:48:05;7.37;;;4.30;;
19183;SDS011;9724;51.194;6.856;2023-07-22T14:50:32;9.73;;;4.90;;
19183;SDS011;9724;51.194;6.856;2023-07-22T14:52:58;3.63;;;2.80;;
19183;SDS011;9724;51.194;6.856;2023-07-22T14:55:25;3.20;;;2.90;;